sensor_id;sensor_type;location;lat;lon;timestamp;temperature;humidity
66582;SHT31;53438;48.898;2.308;2024-02-04T00:01:14;10.97;82.49
66582;SHT31;53438;48.898;2.308;2024-02-04T00:03:40;11.00;82.29
66582;SHT31;53438;48.898;2.308;2024-02-04T00:06:05;10.93;82.33
66582;SHT31;53438;48.898;2.308;2024-02-04T00:08:31;10.93;82.33
66582;SHT31;53438;48.898;2.308;2024-02-04T00:10:57;10.92;82.42
66582;SHT31;53438;48.898;2.308;2024-02-04T00:13:22;10.89;82.42
66582;SHT31;53438;48.898;2.308;2024-02-04T00:15:48;10.83;82.21
66582;SHT31;53438;48.898;2.308;2024-02-04T00:18:13;10.85;82.30
66582;SHT31;53438;48.898;2.308;2024-02-04T00:20:38;10.85;81.75
66582;SHT31;53438;48.898;2.308;2024-02-04T00:23:04;10.85;81.49
66582;SHT31;53438;48.898;2.308;2024-02-04T00:25:29;10.88;81.67
66582;SHT31;53438;48.898;2.308;2024-02-04T00:27:55;10.88;81.22
66582;SHT31;53438;48.898;2.308;2024-02-04T00:30:20;10.89;81.23
66582;SHT31;53438;48.898;2.308;2024-02-04T00:32:46;10.88;81.23
66582;SHT31;53438;48.898;2.308;2024-02-04T00:35:11;10.91;81.24
66582;SHT31;53438;48.898;2.308;2024-02-04T00:37:36;10.92;81.11
66582;SHT31;53438;48.898;2.308;2024-02-04T00:40:02;10.89;80.98
66582;SHT31;53438;48.898;2.308;2024-02-04T00:42:27;10.86;80.99
66582;SHT31;53438;48.898;2.308;2024-02-04T00:44:53;10.89;80.92
66582;SHT31;53438;48.898;2.308;2024-02-04T00:47:18;10.88;81.02
66582;SHT31;53438;48.898;2.308;2024-02-04T00:49:43;10.89;80.97
66582;SHT31;53438;48.898;2.308;2024-02-04T00:52:09;10.92;81.19
66582;SHT31;53438;48.898;2.308;2024-02-04T00:54:35;10.93;80.89
66582;SHT31;53438;48.898;2.308;2024-02-04T00:57:00;10.95;80.79
66582;SHT31;53438;48.898;2.308;2024-02-04T00:59:25;11.00;80.80
66582;SHT31;53438;48.898;2.308;2024-02-04T04:00:46;10.61;86.41
66582;SHT31;53438;48.898;2.308;2024-02-04T04:03:12;10.58;86.63
66582;SHT31;53438;48.898;2.308;2024-02-04T04:05:37;10.51;87.03
66582;SHT31;53438;48.898;2.308;2024-02-04T04:08:02;10.54;87.02
66582;SHT31;53438;48.898;2.308;2024-02-04T04:10:28;10.52;87.17
66582;SHT31;53438;48.898;2.308;2024-02-04T04:12:53;10.35;87.56
66582;SHT31;53438;48.898;2.308;2024-02-04T04:15:18;10.38;87.70
66582;SHT31;53438;48.898;2.308;2024-02-04T04:17:44;10.42;87.89
66582;SHT31;53438;48.898;2.308;2024-02-04T04:20:10;10.41;87.54
66582;SHT31;53438;48.898;2.308;2024-02-04T04:22:38;10.49;87.61
66582;SHT31;53438;48.898;2.308;2024-02-04T04:25:04;10.49;87.61
66582;SHT31;53438;48.898;2.308;2024-02-04T04:27:30;10.58;87.38
66582;SHT31;53438;48.898;2.308;2024-02-04T04:29:55;10.59;87.03
66582;SHT31;53438;48.898;2.308;2024-02-04T04:32:20;10.51;87.58
66582;SHT31;53438;48.898;2.308;2024-02-04T04:34:45;10.49;87.48
66582;SHT31;53438;48.898;2.308;2024-02-04T04:37:11;10.58;87.50
66582;SHT31;53438;48.898;2.308;2024-02-04T04:39:36;10.64;87.38
66582;SHT31;53438;48.898;2.308;2024-02-04T04:42:02;10.58;87.73
66582;SHT31;53438;48.898;2.308;2024-02-04T04:44:27;10.58;87.74
66582;SHT31;53438;48.898;2.308;2024-02-04T04:46:52;10.59;87.89
66582;SHT31;53438;48.898;2.308;2024-02-04T04:49:18;10.56;88.04
66582;SHT31;53438;48.898;2.308;2024-02-04T04:51:46;10.56;87.53
66582;SHT31;53438;48.898;2.308;2024-02-04T04:54:11;10.55;87.79
66582;SHT31;53438;48.898;2.308;2024-02-04T04:56:40;10.51;88.11
66582;SHT31;53438;48.898;2.308;2024-02-04T04:59:06;10.56;87.90
66582;SHT31;53438;48.898;2.308;2024-02-04T05:01:32;10.49;87.86
66582;SHT31;53438;48.898;2.308;2024-02-04T05:03:57;10.49;87.84
66582;SHT31;53438;48.898;2.308;2024-02-04T05:06:22;10.55;87.52
66582;SHT31;53438;48.898;2.308;2024-02-04T05:08:48;10.55;87.38
66582;SHT31;53438;48.898;2.308;2024-02-04T05:11:13;10.54;87.06
66582;SHT31;53438;48.898;2.308;2024-02-04T05:13:39;10.51;87.28
66582;SHT31;53438;48.898;2.308;2024-02-04T05:16:05;10.46;87.49
66582;SHT31;53438;48.898;2.308;2024-02-04T05:18:30;10.49;87.53
66582;SHT31;53438;48.898;2.308;2024-02-04T05:20:55;10.51;87.46
66582;SHT31;53438;48.898;2.308;2024-02-04T05:23:21;10.49;87.36
66582;SHT31;53438;48.898;2.308;2024-02-04T05:25:47;10.44;87.69
66582;SHT31;53438;48.898;2.308;2024-02-04T05:28:12;10.52;87.42
66582;SHT31;53438;48.898;2.308;2024-02-04T05:30:38;10.46;87.62
66582;SHT31;53438;48.898;2.308;2024-02-04T05:33:03;10.45;87.54
66582;SHT31;53438;48.898;2.308;2024-02-04T05:35:29;10.40;87.43
66582;SHT31;53438;48.898;2.308;2024-02-04T05:37:54;10.48;87.60
66582;SHT31;53438;48.898;2.308;2024-02-04T05:40:19;10.45;87.45
66582;SHT31;53438;48.898;2.308;2024-02-04T05:42:45;10.48;87.36
66582;SHT31;53438;48.898;2.308;2024-02-04T05:45:11;10.56;87.34
66582;SHT31;53438;48.898;2.308;2024-02-04T05:47:37;10.59;87.13
66582;SHT31;53438;48.898;2.308;2024-02-04T05:50:02;10.62;86.88
66582;SHT31;53438;48.898;2.308;2024-02-04T05:52:27;10.52;86.63
66582;SHT31;53438;48.898;2.308;2024-02-04T05:54:53;10.52;87.13
66582;SHT31;53438;48.898;2.308;2024-02-04T05:57:18;10.56;86.94
66582;SHT31;53438;48.898;2.308;2024-02-04T05:59:45;10.62;86.86
66582;SHT31;53438;48.898;2.308;2024-02-04T06:02:13;10.64;86.57
66582;SHT31;53438;48.898;2.308;2024-02-04T06:04:38;10.61;86.54
66582;SHT31;53438;48.898;2.308;2024-02-04T06:07:05;10.75;86.39
66582;SHT31;53438;48.898;2.308;2024-02-04T06:09:32;10.72;86.30
66582;SHT31;53438;48.898;2.308;2024-02-04T06:11:57;10.73;86.38
66582;SHT31;53438;48.898;2.308;2024-02-04T06:14:23;10.65;86.44
66582;SHT31;53438;48.898;2.308;2024-02-04T06:16:48;10.64;86.48
66582;SHT31;53438;48.898;2.308;2024-02-04T06:19:13;10.65;86.26
66582;SHT31;53438;48.898;2.308;2024-02-04T06:21:40;10.62;86.45
66582;SHT31;53438;48.898;2.308;2024-02-04T06:24:05;10.59;86.18
66582;SHT31;53438;48.898;2.308;2024-02-04T06:26:30;10.64;86.38
66582;SHT31;53438;48.898;2.308;2024-02-04T06:28:56;10.61;86.57
66582;SHT31;53438;48.898;2.308;2024-02-04T06:31:21;10.51;86.91
66582;SHT31;53438;48.898;2.308;2024-02-04T06:33:46;10.55;86.67
66582;SHT31;53438;48.898;2.308;2024-02-04T06:36:12;10.59;86.45
66582;SHT31;53438;48.898;2.308;2024-02-04T06:38:37;10.65;86.23
66582;SHT31;53438;48.898;2.308;2024-02-04T06:41:02;10.71;85.52
66582;SHT31;53438;48.898;2.308;2024-02-04T06:43:28;10.71;85.76
66582;SHT31;53438;48.898;2.308;2024-02-04T06:45:53;10.71;85.35
66582;SHT31;53438;48.898;2.308;2024-02-04T06:48:19;10.64;85.65
66582;SHT31;53438;48.898;2.308;2024-02-04T06:50:44;10.64;85.83
66582;SHT31;53438;48.898;2.308;2024-02-04T06:53:11;10.65;85.65
66582;SHT31;53438;48.898;2.308;2024-02-04T06:55:36;10.56;85.98
66582;SHT31;53438;48.898;2.308;2024-02-04T06:58:01;10.44;86.08
66582;SHT31;53438;48.898;2.308;2024-02-04T07:00:26;10.44;86.27
66582;SHT31;53438;48.898;2.308;2024-02-04T07:02:52;10.55;86.06
66582;SHT31;53438;48.898;2.308;2024-02-04T07:05:17;10.42;86.31
66582;SHT31;53438;48.898;2.308;2024-02-04T07:07:43;10.46;86.47
66582;SHT31;53438;48.898;2.308;2024-02-04T07:10:09;10.55;86.21
66582;SHT31;53438;48.898;2.308;2024-02-04T07:12:35;10.48;86.16
66582;SHT31;53438;48.898;2.308;2024-02-04T07:15:00;10.56;86.09
66582;SHT31;53438;48.898;2.308;2024-02-04T07:17:26;10.61;85.89
66582;SHT31;53438;48.898;2.308;2024-02-04T07:19:52;10.46;86.11
66582;SHT31;53438;48.898;2.308;2024-02-04T07:22:17;10.55;86.16
66582;SHT31;53438;48.898;2.308;2024-02-04T07:24:42;10.64;85.96
66582;SHT31;53438;48.898;2.308;2024-02-04T07:27:07;10.64;85.87
66582;SHT31;53438;48.898;2.308;2024-02-04T07:29:33;10.62;85.98
66582;SHT31;53438;48.898;2.308;2024-02-04T07:31:58;10.45;85.97
66582;SHT31;53438;48.898;2.308;2024-02-04T07:34:24;10.61;85.92
66582;SHT31;53438;48.898;2.308;2024-02-04T07:36:49;10.52;86.04
66582;SHT31;53438;48.898;2.308;2024-02-04T07:39:17;10.65;85.91
66582;SHT31;53438;48.898;2.308;2024-02-04T07:41:43;10.59;85.88
66582;SHT31;53438;48.898;2.308;2024-02-04T07:44:08;10.65;85.85
66582;SHT31;53438;48.898;2.308;2024-02-04T07:46:34;10.71;85.71
66582;SHT31;53438;48.898;2.308;2024-02-04T07:48:59;10.59;86.06
66582;SHT31;53438;48.898;2.308;2024-02-04T07:51:24;10.64;85.94
66582;SHT31;53438;48.898;2.308;2024-02-04T07:53:49;10.51;86.14
66582;SHT31;53438;48.898;2.308;2024-02-04T07:56:15;10.52;86.19
66582;SHT31;53438;48.898;2.308;2024-02-04T07:58:40;10.56;86.27
66582;SHT31;53438;48.898;2.308;2024-02-04T08:01:06;10.59;86.29
66582;SHT31;53438;48.898;2.308;2024-02-04T08:03:31;10.62;86.13
66582;SHT31;53438;48.898;2.308;2024-02-04T08:05:56;10.68;85.92
66582;SHT31;53438;48.898;2.308;2024-02-04T08:08:21;10.62;85.95
66582;SHT31;53438;48.898;2.308;2024-02-04T08:10:47;10.59;85.81
66582;SHT31;53438;48.898;2.308;2024-02-04T08:13:12;10.62;85.99
66582;SHT31;53438;48.898;2.308;2024-02-04T08:15:37;10.71;85.85
66582;SHT31;53438;48.898;2.308;2024-02-04T08:18:03;10.76;85.65
66582;SHT31;53438;48.898;2.308;2024-02-04T08:20:28;10.82;85.50
66582;SHT31;53438;48.898;2.308;2024-02-04T08:22:54;10.75;85.35
66582;SHT31;53438;48.898;2.308;2024-02-04T08:25:20;10.73;85.61
66582;SHT31;53438;48.898;2.308;2024-02-04T08:27:45;10.73;85.60
66582;SHT31;53438;48.898;2.308;2024-02-04T08:30:11;10.73;85.59
66582;SHT31;53438;48.898;2.308;2024-02-04T08:32:37;10.79;85.51
66582;SHT31;53438;48.898;2.308;2024-02-04T08:35:03;10.77;85.48
66582;SHT31;53438;48.898;2.308;2024-02-04T08:37:29;10.58;86.31
66582;SHT31;53438;48.898;2.308;2024-02-04T08:39:54;10.66;86.27
66582;SHT31;53438;48.898;2.308;2024-02-04T08:42:20;10.68;86.15
66582;SHT31;53438;48.898;2.308;2024-02-04T08:44:45;10.64;86.10
66582;SHT31;53438;48.898;2.308;2024-02-04T08:47:10;10.56;86.45
66582;SHT31;53438;48.898;2.308;2024-02-04T08:49:39;10.56;86.44
66582;SHT31;53438;48.898;2.308;2024-02-04T08:52:04;10.65;86.39
66582;SHT31;53438;48.898;2.308;2024-02-04T08:54:29;10.68;86.37
66582;SHT31;53438;48.898;2.308;2024-02-04T08:56:55;10.83;86.09
66582;SHT31;53438;48.898;2.308;2024-02-04T08:59:20;10.56;86.28
66582;SHT31;53438;48.898;2.308;2024-02-04T09:01:46;10.66;86.13
66582;SHT31;53438;48.898;2.308;2024-02-04T09:04:11;10.66;86.09
66582;SHT31;53438;48.898;2.308;2024-02-04T09:06:36;10.69;85.60
66582;SHT31;53438;48.898;2.308;2024-02-04T09:09:02;10.73;85.56
66582;SHT31;53438;48.898;2.308;2024-02-04T09:11:27;10.76;85.28
66582;SHT31;53438;48.898;2.308;2024-02-04T09:13:53;10.68;84.85
66582;SHT31;53438;48.898;2.308;2024-02-04T09:16:18;10.71;84.64
66582;SHT31;53438;48.898;2.308;2024-02-04T09:18:43;10.71;84.66
66582;SHT31;53438;48.898;2.308;2024-02-04T09:21:10;10.71;83.94
66582;SHT31;53438;48.898;2.308;2024-02-04T09:23:36;10.77;84.10
66582;SHT31;53438;48.898;2.308;2024-02-04T09:26:01;10.86;83.96
66582;SHT31;53438;48.898;2.308;2024-02-04T09:28:27;10.80;83.61
66582;SHT31;53438;48.898;2.308;2024-02-04T09:30:52;10.79;83.79
66582;SHT31;53438;48.898;2.308;2024-02-04T09:33:17;10.79;83.47
66582;SHT31;53438;48.898;2.308;2024-02-04T09:35:42;10.85;83.59
66582;SHT31;53438;48.898;2.308;2024-02-04T09:38:08;10.83;83.23
66582;SHT31;53438;48.898;2.308;2024-02-04T09:40:34;10.86;83.19
66582;SHT31;53438;48.898;2.308;2024-02-04T09:43:00;10.95;83.04
66582;SHT31;53438;48.898;2.308;2024-02-04T09:45:27;10.93;82.60
66582;SHT31;53438;48.898;2.308;2024-02-04T09:47:53;10.93;82.78
66582;SHT31;53438;48.898;2.308;2024-02-04T09:50:21;10.95;82.83
66582;SHT31;53438;48.898;2.308;2024-02-04T09:52:57;10.99;82.73
66582;SHT31;53438;48.898;2.308;2024-02-04T09:55:24;10.96;82.61
66582;SHT31;53438;48.898;2.308;2024-02-04T09:57:50;10.79;83.60
66582;SHT31;53438;48.898;2.308;2024-02-04T10:00:18;10.86;83.49
66582;SHT31;53438;48.898;2.308;2024-02-04T10:02:45;10.89;83.57
66582;SHT31;53438;48.898;2.308;2024-02-04T10:05:10;10.95;83.40
66582;SHT31;53438;48.898;2.308;2024-02-04T10:07:36;10.89;83.53
66582;SHT31;53438;48.898;2.308;2024-02-04T10:10:01;10.97;83.54
66582;SHT31;53438;48.898;2.308;2024-02-04T10:12:27;11.05;83.29
66582;SHT31;53438;48.898;2.308;2024-02-04T10:14:52;11.02;83.26
66582;SHT31;53438;48.898;2.308;2024-02-04T10:17:18;10.95;82.96
66582;SHT31;53438;48.898;2.308;2024-02-04T10:19:47;10.97;82.14
66582;SHT31;53438;48.898;2.308;2024-02-04T10:22:13;11.05;82.12
66582;SHT31;53438;48.898;2.308;2024-02-04T10:24:39;11.06;82.08
66582;SHT31;53438;48.898;2.308;2024-02-04T10:27:04;11.09;82.01
66582;SHT31;53438;48.898;2.308;2024-02-04T10:29:29;11.10;81.64
66582;SHT31;53438;48.898;2.308;2024-02-04T10:31:55;11.19;81.92
66582;SHT31;53438;48.898;2.308;2024-02-04T10:34:25;11.26;81.74
66582;SHT31;53438;48.898;2.308;2024-02-04T10:36:51;11.30;81.31
66582;SHT31;53438;48.898;2.308;2024-02-04T10:39:16;11.27;81.03
66582;SHT31;53438;48.898;2.308;2024-02-04T10:41:51;11.33;81.00
66582;SHT31;53438;48.898;2.308;2024-02-04T10:44:18;11.31;80.97
66582;SHT31;53438;48.898;2.308;2024-02-04T10:46:46;11.36;80.84
66582;SHT31;53438;48.898;2.308;2024-02-04T10:49:14;11.41;80.77
66582;SHT31;53438;48.898;2.308;2024-02-04T10:51:40;11.41;80.64
66582;SHT31;53438;48.898;2.308;2024-02-04T10:54:06;11.53;80.45
66582;SHT31;53438;48.898;2.308;2024-02-04T10:56:37;11.40;80.51
66582;SHT31;53438;48.898;2.308;2024-02-04T10:59:03;11.37;80.14
66582;SHT31;53438;48.898;2.308;2024-02-04T11:01:29;11.40;80.01
66582;SHT31;53438;48.898;2.308;2024-02-04T11:03:55;11.40;79.67
66582;SHT31;53438;48.898;2.308;2024-02-04T11:06:22;11.38;79.91
66582;SHT31;53438;48.898;2.308;2024-02-04T11:08:48;11.48;79.59
66582;SHT31;53438;48.898;2.308;2024-02-04T11:11:13;11.51;79.77
66582;SHT31;53438;48.898;2.308;2024-02-04T11:13:42;11.48;79.77
66582;SHT31;53438;48.898;2.308;2024-02-04T11:16:21;11.44;79.76
66582;SHT31;53438;48.898;2.308;2024-02-04T11:19:08;11.43;79.47
66582;SHT31;53438;48.898;2.308;2024-02-04T11:24:44;11.44;79.31
66582;SHT31;53438;48.898;2.308;2024-02-04T11:27:13;11.51;80.14
66582;SHT31;53438;48.898;2.308;2024-02-04T11:29:39;11.47;79.52
66582;SHT31;53438;48.898;2.308;2024-02-04T11:32:05;11.51;79.80
66582;SHT31;53438;48.898;2.308;2024-02-04T11:34:32;11.54;79.42
66582;SHT31;53438;48.898;2.308;2024-02-04T11:36:58;11.63;78.82
66582;SHT31;53438;48.898;2.308;2024-02-04T11:39:24;11.63;78.91
66582;SHT31;53438;48.898;2.308;2024-02-04T11:41:50;11.70;78.57
66582;SHT31;53438;48.898;2.308;2024-02-04T11:44:23;11.63;78.84
66582;SHT31;53438;48.898;2.308;2024-02-04T11:46:49;11.64;78.72
66582;SHT31;53438;48.898;2.308;2024-02-04T11:49:18;11.58;78.87
66582;SHT31;53438;48.898;2.308;2024-02-04T11:51:47;11.57;78.41
66582;SHT31;53438;48.898;2.308;2024-02-04T11:54:14;11.57;78.91
66582;SHT31;53438;48.898;2.308;2024-02-04T11:56:41;11.51;78.67
66582;SHT31;53438;48.898;2.308;2024-02-04T11:59:07;11.61;79.10
66582;SHT31;53438;48.898;2.308;2024-02-04T12:01:33;11.57;78.89
66582;SHT31;53438;48.898;2.308;2024-02-04T12:04:09;11.51;78.86
66582;SHT31;53438;48.898;2.308;2024-02-04T12:06:34;11.44;79.22
66582;SHT31;53438;48.898;2.308;2024-02-04T12:09:00;11.48;78.84
66582;SHT31;53438;48.898;2.308;2024-02-04T12:11:25;11.48;78.86
66582;SHT31;53438;48.898;2.308;2024-02-04T12:13:52;11.51;78.74
66582;SHT31;53438;48.898;2.308;2024-02-04T12:16:19;11.37;78.92
66582;SHT31;53438;48.898;2.308;2024-02-04T12:18:49;11.44;78.57
66582;SHT31;53438;48.898;2.308;2024-02-04T12:21:14;11.47;78.28
66582;SHT31;53438;48.898;2.308;2024-02-04T12:23:40;11.45;78.19
66582;SHT31;53438;48.898;2.308;2024-02-04T12:26:05;11.50;78.22
66582;SHT31;53438;48.898;2.308;2024-02-04T12:28:31;11.45;78.43
66582;SHT31;53438;48.898;2.308;2024-02-04T12:30:56;11.50;78.08
66582;SHT31;53438;48.898;2.308;2024-02-04T12:33:23;11.50;78.17
66582;SHT31;53438;48.898;2.308;2024-02-04T12:35:52;11.41;78.13
66582;SHT31;53438;48.898;2.308;2024-02-04T12:38:20;11.53;78.55
66582;SHT31;53438;48.898;2.308;2024-02-04T12:40:46;11.41;78.90
66582;SHT31;53438;48.898;2.308;2024-02-04T12:43:11;11.36;79.40
66582;SHT31;53438;48.898;2.308;2024-02-04T12:45:37;11.37;79.64
66582;SHT31;53438;48.898;2.308;2024-02-04T12:48:03;11.33;79.65
66582;SHT31;53438;48.898;2.308;2024-02-04T12:50:29;11.37;79.63
66582;SHT31;53438;48.898;2.308;2024-02-04T12:53:04;11.43;79.55
66582;SHT31;53438;48.898;2.308;2024-02-04T12:55:30;11.44;79.63
66582;SHT31;53438;48.898;2.308;2024-02-04T12:58:03;11.48;79.30
66582;SHT31;53438;48.898;2.308;2024-02-04T13:00:35;11.41;79.07
66582;SHT31;53438;48.898;2.308;2024-02-04T13:03:03;11.41;79.32
66582;SHT31;53438;48.898;2.308;2024-02-04T13:05:28;11.24;79.27
66582;SHT31;53438;48.898;2.308;2024-02-04T13:07:58;11.33;79.52
66582;SHT31;53438;48.898;2.308;2024-02-04T13:10:24;11.38;79.26
66582;SHT31;53438;48.898;2.308;2024-02-04T13:13:00;11.38;79.08
66582;SHT31;53438;48.898;2.308;2024-02-04T13:15:30;11.44;79.19
66582;SHT31;53438;48.898;2.308;2024-02-04T13:17:55;11.51;78.99
66582;SHT31;53438;48.898;2.308;2024-02-04T13:20:22;11.51;79.15
66582;SHT31;53438;48.898;2.308;2024-02-04T13:22:47;11.58;78.91
66582;SHT31;53438;48.898;2.308;2024-02-04T13:25:12;11.51;78.86
66582;SHT31;53438;48.898;2.308;2024-02-04T13:27:38;11.50;78.99
66582;SHT31;53438;48.898;2.308;2024-02-04T13:30:03;11.37;78.99
66582;SHT31;53438;48.898;2.308;2024-02-04T13:32:29;11.36;78.81
66582;SHT31;53438;48.898;2.308;2024-02-04T13:34:54;11.40;79.21
66582;SHT31;53438;48.898;2.308;2024-02-04T13:37:21;11.37;79.35
66582;SHT31;53438;48.898;2.308;2024-02-04T13:39:46;11.34;78.85
66582;SHT31;53438;48.898;2.308;2024-02-04T13:42:12;11.37;79.14
66582;SHT31;53438;48.898;2.308;2024-02-04T13:44:38;11.23;78.50
66582;SHT31;53438;48.898;2.308;2024-02-04T13:47:03;11.20;78.65
66582;SHT31;53438;48.898;2.308;2024-02-04T13:49:28;11.24;79.03
66582;SHT31;53438;48.898;2.308;2024-02-04T13:51:54;11.33;79.09
66582;SHT31;53438;48.898;2.308;2024-02-04T13:54:19;11.34;78.83
66582;SHT31;53438;48.898;2.308;2024-02-04T13:56:45;11.30;79.06
66582;SHT31;53438;48.898;2.308;2024-02-04T13:59:13;11.28;79.08
66582;SHT31;53438;48.898;2.308;2024-02-04T14:01:38;11.17;79.07
66582;SHT31;53438;48.898;2.308;2024-02-04T14:04:03;11.17;79.65
66582;SHT31;53438;48.898;2.308;2024-02-04T14:06:29;11.28;79.50
66582;SHT31;53438;48.898;2.308;2024-02-04T14:08:54;11.31;78.97
66582;SHT31;53438;48.898;2.308;2024-02-04T14:11:20;11.31;78.67
66582;SHT31;53438;48.898;2.308;2024-02-04T14:13:45;11.34;78.95
66582;SHT31;53438;48.898;2.308;2024-02-04T14:16:10;11.22;78.86
66582;SHT31;53438;48.898;2.308;2024-02-04T14:18:36;11.26;79.04
66582;SHT31;53438;48.898;2.308;2024-02-04T14:21:02;11.30;79.01
66582;SHT31;53438;48.898;2.308;2024-02-04T14:23:27;11.36;78.73
66582;SHT31;53438;48.898;2.308;2024-02-04T14:25:52;11.28;78.97
66582;SHT31;53438;48.898;2.308;2024-02-04T14:28:18;11.31;78.87
66582;SHT31;53438;48.898;2.308;2024-02-04T14:30:44;11.20;79.10
66582;SHT31;53438;48.898;2.308;2024-02-04T14:33:09;11.16;79.11
66582;SHT31;53438;48.898;2.308;2024-02-04T14:35:35;11.26;79.31
66582;SHT31;53438;48.898;2.308;2024-02-04T14:38:00;11.33;78.95
66582;SHT31;53438;48.898;2.308;2024-02-04T14:40:27;11.41;78.97
66582;SHT31;53438;48.898;2.308;2024-02-04T14:42:52;11.43;78.77
66582;SHT31;53438;48.898;2.308;2024-02-04T14:45:17;11.34;79.06
66582;SHT31;53438;48.898;2.308;2024-02-04T14:47:44;11.27;79.35
66582;SHT31;53438;48.898;2.308;2024-02-04T14:50:09;11.33;79.69
66582;SHT31;53438;48.898;2.308;2024-02-04T14:52:34;11.41;79.56
66582;SHT31;53438;48.898;2.308;2024-02-04T14:55:00;11.28;79.80
66582;SHT31;53438;48.898;2.308;2024-02-04T14:57:25;11.31;79.91
66582;SHT31;53438;48.898;2.308;2024-02-04T14:59:50;11.37;79.66
66582;SHT31;53438;48.898;2.308;2024-02-04T15:02:16;11.38;79.36
66582;SHT31;53438;48.898;2.308;2024-02-04T15:04:41;11.47;79.30
66582;SHT31;53438;48.898;2.308;2024-02-04T15:07:06;11.57;78.86
66582;SHT31;53438;48.898;2.308;2024-02-04T15:09:34;11.47;79.26
66582;SHT31;53438;48.898;2.308;2024-02-04T15:11:59;11.45;79.16
66582;SHT31;53438;48.898;2.308;2024-02-04T15:14:26;11.43;79.21
66582;SHT31;53438;48.898;2.308;2024-02-04T15:16:52;11.50;79.14
66582;SHT31;53438;48.898;2.308;2024-02-04T15:19:19;11.50;78.96
66582;SHT31;53438;48.898;2.308;2024-02-04T15:21:45;11.47;79.15
66582;SHT31;53438;48.898;2.308;2024-02-04T15:24:11;11.48;78.91
66582;SHT31;53438;48.898;2.308;2024-02-04T15:26:36;11.44;78.82
66582;SHT31;53438;48.898;2.308;2024-02-04T15:29:05;11.44;79.08
66582;SHT31;53438;48.898;2.308;2024-02-04T15:31:31;11.50;79.07
66582;SHT31;53438;48.898;2.308;2024-02-04T15:33:58;11.58;78.80
66582;SHT31;53438;48.898;2.308;2024-02-04T15:36:24;11.57;78.90
66582;SHT31;53438;48.898;2.308;2024-02-04T15:38:51;11.40;79.16
66582;SHT31;53438;48.898;2.308;2024-02-04T15:41:16;11.41;79.31
66582;SHT31;53438;48.898;2.308;2024-02-04T15:43:41;11.45;79.13
66582;SHT31;53438;48.898;2.308;2024-02-04T15:46:08;11.24;79.47
66582;SHT31;53438;48.898;2.308;2024-02-04T15:48:40;11.28;79.24
66582;SHT31;53438;48.898;2.308;2024-02-04T15:51:08;11.26;79.38
66582;SHT31;53438;48.898;2.308;2024-02-04T15:53:35;11.24;79.81
66582;SHT31;53438;48.898;2.308;2024-02-04T15:56:07;11.34;79.90
66582;SHT31;53438;48.898;2.308;2024-02-04T15:58:34;11.41;79.62
66582;SHT31;53438;48.898;2.308;2024-02-04T16:01:07;11.37;79.78
66582;SHT31;53438;48.898;2.308;2024-02-04T16:03:35;11.33;80.12
66582;SHT31;53438;48.898;2.308;2024-02-04T16:06:00;11.40;80.06
66582;SHT31;53438;48.898;2.308;2024-02-04T16:08:26;11.40;79.97
66582;SHT31;53438;48.898;2.308;2024-02-04T16:10:53;11.34;79.82
66582;SHT31;53438;48.898;2.308;2024-02-04T16:13:20;11.36;79.82
66582;SHT31;53438;48.898;2.308;2024-02-04T16:15:51;11.28;79.83
66582;SHT31;53438;48.898;2.308;2024-02-04T16:18:19;11.36;79.75
66582;SHT31;53438;48.898;2.308;2024-02-04T16:20:44;11.41;79.61
66582;SHT31;53438;48.898;2.308;2024-02-04T16:23:10;11.45;79.27
66582;SHT31;53438;48.898;2.308;2024-02-04T16:25:35;11.48;79.14
66582;SHT31;53438;48.898;2.308;2024-02-04T16:28:01;11.55;78.91
66582;SHT31;53438;48.898;2.308;2024-02-04T16:30:27;11.50;78.89
66582;SHT31;53438;48.898;2.308;2024-02-04T16:32:53;11.50;78.72
66582;SHT31;53438;48.898;2.308;2024-02-04T16:35:18;11.51;78.72
66582;SHT31;53438;48.898;2.308;2024-02-04T16:37:46;11.50;78.72
66582;SHT31;53438;48.898;2.308;2024-02-04T16:40:12;11.40;79.10
66582;SHT31;53438;48.898;2.308;2024-02-04T16:42:38;11.31;79.17
66582;SHT31;53438;48.898;2.308;2024-02-04T16:45:03;11.36;79.43
66582;SHT31;53438;48.898;2.308;2024-02-04T16:47:29;11.30;79.13
66582;SHT31;53438;48.898;2.308;2024-02-04T16:49:55;11.36;79.47
66582;SHT31;53438;48.898;2.308;2024-02-04T16:52:20;11.36;79.38
66582;SHT31;53438;48.898;2.308;2024-02-04T16:54:45;11.41;79.39
66582;SHT31;53438;48.898;2.308;2024-02-04T16:57:11;11.34;79.23
66582;SHT31;53438;48.898;2.308;2024-02-04T16:59:37;11.41;79.31
66582;SHT31;53438;48.898;2.308;2024-02-04T17:02:03;11.48;79.21
66582;SHT31;53438;48.898;2.308;2024-02-04T17:04:29;11.53;79.12
66582;SHT31;53438;48.898;2.308;2024-02-04T17:06:55;11.30;79.20
66582;SHT31;53438;48.898;2.308;2024-02-04T17:09:20;11.31;79.64
66582;SHT31;53438;48.898;2.308;2024-02-04T17:11:46;11.16;79.92
66582;SHT31;53438;48.898;2.308;2024-02-04T17:14:12;11.12;80.09
66582;SHT31;53438;48.898;2.308;2024-02-04T17:17:05;11.24;80.06
66582;SHT31;53438;48.898;2.308;2024-02-04T17:22:12;11.22;79.90
66582;SHT31;53438;48.898;2.308;2024-02-04T17:24:44;11.24;79.82
66582;SHT31;53438;48.898;2.308;2024-02-04T17:27:12;11.24;80.02
66582;SHT31;53438;48.898;2.308;2024-02-04T17:29:38;11.09;80.53
66582;SHT31;53438;48.898;2.308;2024-02-04T17:32:04;11.16;80.38
66582;SHT31;53438;48.898;2.308;2024-02-04T17:34:33;11.23;80.34
66582;SHT31;53438;48.898;2.308;2024-02-04T17:36:59;11.24;80.54
66582;SHT31;53438;48.898;2.308;2024-02-04T17:39:24;11.23;80.53
66582;SHT31;53438;48.898;2.308;2024-02-04T17:41:53;11.10;80.84
66582;SHT31;53438;48.898;2.308;2024-02-04T17:44:18;11.09;81.27
66582;SHT31;53438;48.898;2.308;2024-02-04T17:46:44;11.13;81.22
66582;SHT31;53438;48.898;2.308;2024-02-04T17:49:11;11.16;81.14
66582;SHT31;53438;48.898;2.308;2024-02-04T17:51:36;11.24;80.80
66582;SHT31;53438;48.898;2.308;2024-02-04T17:54:03;11.24;80.88
66582;SHT31;53438;48.898;2.308;2024-02-04T17:56:28;11.17;80.59
66582;SHT31;53438;48.898;2.308;2024-02-04T17:58:54;11.22;81.03
66582;SHT31;53438;48.898;2.308;2024-02-04T18:01:22;11.15;81.31
66582;SHT31;53438;48.898;2.308;2024-02-04T18:03:47;11.13;81.56
66582;SHT31;53438;48.898;2.308;2024-02-04T18:06:13;11.13;81.31
66582;SHT31;53438;48.898;2.308;2024-02-04T18:08:39;11.15;81.44
66582;SHT31;53438;48.898;2.308;2024-02-04T18:11:14;11.12;81.47
66582;SHT31;53438;48.898;2.308;2024-02-04T18:13:40;11.20;81.39
66582;SHT31;53438;48.898;2.308;2024-02-04T18:16:06;11.22;81.25
66582;SHT31;53438;48.898;2.308;2024-02-04T18:18:31;11.13;81.25
66582;SHT31;53438;48.898;2.308;2024-02-04T18:20:56;11.17;81.37
66582;SHT31;53438;48.898;2.308;2024-02-04T18:23:22;11.15;81.60
66582;SHT31;53438;48.898;2.308;2024-02-04T18:25:47;11.15;81.44
66582;SHT31;53438;48.898;2.308;2024-02-04T18:28:12;11.06;81.93